Time;durP1;ratioP1;P1;durP2;ratioP2;P2;SDS_P1;SDS_P2;PMS_P1;PMS_P2;Temp;Humidity;BMP_temperature;BMP_pressure;BME280_temperature;BME280_humidity;BME280_pressure;Samples;Min_cycle;Max_cycle;Signal;HPM_P1;HPM_P2
2022/05/07 00:01:31;;;;;;;8.60;5.32;;;14.20;99.90;;;;;;5098017;28;20089;-77
2022/05/07 00:03:57;;;;;;;8.70;5.95;;;14.20;99.90;;;;;;5097652;28;20031;-77
2022/05/07 00:06:23;;;;;;;11.98;5.43;;;14.10;99.90;;;;;;5097697;28;20020;-77
2022/05/07 00:08:49;;;;;;;10.30;5.60;;;14.10;99.90;;;;;;5097473;28;20105;-78
2022/05/07 00:11:20;;;;;;;11.43;6.47;;;14.10;99.90;;;;;;5097611;28;20028;-75
2022/05/07 00:13:50;;;;;;;8.45;5.32;;;14.10;99.90;;;;;;5096036;28;20407;-74
2022/05/07 00:19:02;;;;;;;12.50;5.57;;;14.00;99.90;;;;;;5086093;28;20548;-79
2022/05/07 00:21:28;;;;;;;10.45;5.22;;;14.00;99.90;;;;;;5096290;28;20027;-77
2022/05/07 00:23:54;;;;;;;8.80;5.95;;;14.00;99.90;;;;;;5097240;28;20016;-78
2022/05/07 00:26:20;;;;;;;8.95;5.28;;;14.00;99.90;;;;;;5095989;28;20073;-77
2022/05/07 00:28:46;;;;;;;8.88;5.68;;;14.00;99.90;;;;;;5097542;28;20472;-78
2022/05/07 00:31:12;;;;;;;10.27;5.95;;;14.00;99.90;;;;;;5096189;28;20024;-77
2022/05/07 00:33:38;;;;;;;15.98;5.60;;;13.90;99.90;;;;;;5088663;28;20029;-78
2022/05/07 00:36:04;;;;;;;9.57;6.35;;;13.90;99.90;;;;;;5091023;28;20012;-77
2022/05/07 00:38:30;;;;;;;13.10;6.30;;;13.90;99.90;;;;;;5097271;28;20047;-77
2022/05/07 00:40:56;;;;;;;8.48;6.00;;;13.90;99.90;;;;;;5091728;28;20024;-79
2022/05/07 00:43:22;;;;;;;12.20;5.57;;;13.80;99.90;;;;;;5095954;28;20021;-77
2022/05/07 00:45:50;;;;;;;7.72;5.22;;;13.80;99.90;;;;;;5096797;28;20616;-77
2022/05/07 00:48:16;;;;;;;9.90;5.75;;;13.80;99.90;;;;;;5097171;28;20032;-77
2022/05/07 00:53:29;;;;;;;6.00;4.47;;;13.60;99.90;;;;;;5100400;28;20034;-78
2022/05/07 00:55:56;;;;;;;10.90;6.60;;;13.60;99.90;;;;;;5101364;28;20028;-76
2022/05/07 00:58:22;;;;;;;8.48;6.10;;;13.60;99.90;;;;;;5101262;28;20059;-75
2022/05/07 01:00:48;;;;;;;9.13;5.68;;;13.50;99.90;;;;;;5100983;28;20043;-76
2022/05/07 01:03:14;;;;;;;7.53;6.00;;;13.50;99.90;;;;;;5099907;28;20480;-75
2022/05/07 01:05:40;;;;;;;7.50;5.88;;;13.40;99.90;;;;;;5100969;28;20174;-76
2022/05/07 01:08:09;;;;;;;8.23;6.80;;;13.40;99.90;;;;;;5100782;28;20020;-74
2022/05/07 01:10:35;;;;;;;12.35;6.40;;;13.30;99.90;;;;;;5100836;28;20016;-77
2022/05/07 01:13:01;;;;;;;8.98;5.80;;;13.30;99.90;;;;;;5100957;28;20036;-76
2022/05/07 01:15:27;;;;;;;9.18;6.32;;;13.30;99.90;;;;;;5093462;28;20107;-75
2022/05/07 01:17:53;;;;;;;8.10;5.63;;;13.20;99.90;;;;;;5080657;28;20500;-76
2022/05/07 01:20:19;;;;;;;9.27;6.43;;;13.20;99.90;;;;;;5098462;28;20020;-75
2022/05/07 01:22:46;;;;;;;10.13;6.60;;;13.20;99.90;;;;;;5099188;28;20088;-74
2022/05/07 01:25:12;;;;;;;7.57;6.70;;;13.20;99.90;;;;;;5099245;28;20099;-75
2022/05/07 01:27:38;;;;;;;9.63;6.95;;;13.20;99.90;;;;;;5100596;28;20028;-75
2022/05/07 01:30:05;;;;;;;12.65;7.43;;;13.10;99.90;;;;;;5100603;28;20052;-76
2022/05/07 01:32:31;;;;;;;8.45;6.00;;;13.10;99.90;;;;;;5099204;28;20051;-74
2022/05/07 01:34:57;;;;;;;9.63;7.43;;;13.00;99.90;;;;;;5100428;28;20400;-75
2022/05/07 01:37:24;;;;;;;17.45;7.22;;;13.00;99.90;;;;;;5100248;28;20035;-74
2022/05/07 01:39:50;;;;;;;9.88;5.90;;;12.90;99.90;;;;;;5100213;28;20080;-75
2022/05/07 01:42:16;;;;;;;11.40;6.32;;;12.90;99.90;;;;;;5100822;28;20496;-75
2022/05/07 01:44:42;;;;;;;13.27;7.78;;;12.80;99.90;;;;;;5099926;28;20024;-74
2022/05/07 01:49:52;;;;;;;15.15;7.47;;;12.70;99.90;;;;;;5099194;28;20054;-74
2022/05/07 01:52:17;;;;;;;11.55;6.75;;;12.60;99.90;;;;;;5098727;28;20028;-74
2022/05/07 01:54:43;;;;;;;15.68;8.30;;;12.60;99.90;;;;;;5098961;28;20031;-74
2022/05/07 01:57:09;;;;;;;15.45;7.68;;;12.60;99.90;;;;;;5098964;28;20024;-75
2022/05/07 01:59:35;;;;;;;12.20;7.63;;;12.50;99.90;;;;;;5097655;28;20549;-74
2022/05/07 02:02:01;;;;;;;12.70;8.77;;;12.50;99.90;;;;;;5098704;28;20028;-75
2022/05/07 02:04:26;;;;;;;12.00;8.80;;;12.50;99.90;;;;;;5098580;28;20115;-75
2022/05/07 02:06:52;;;;;;;9.68;8.50;;;12.40;99.90;;;;;;5097108;28;20500;-74
2022/05/07 02:09:18;;;;;;;16.77;9.40;;;12.40;99.90;;;;;;5097397;28;20023;-75
2022/05/07 02:11:44;;;;;;;12.32;9.57;;;12.30;99.90;;;;;;5097347;28;20028;-75
2022/05/07 02:14:10;;;;;;;11.82;8.40;;;12.30;99.90;;;;;;5098580;28;20074;-74
2022/05/07 02:16:36;;;;;;;11.43;9.20;;;12.20;99.90;;;;;;5084753;28;20029;-73
2022/05/07 02:19:02;;;;;;;16.77;8.60;;;12.20;99.90;;;;;;5097786;28;20027;-73
2022/05/07 02:21:28;;;;;;;17.45;9.95;;;12.20;99.90;;;;;;5097218;28;20016;-75
2022/05/07 02:23:54;;;;;;;11.82;9.60;;;12.20;99.90;;;;;;5098570;28;20111;-75
2022/05/07 02:26:20;;;;;;;16.60;9.10;;;12.20;99.90;;;;;;5096923;28;20055;-73
2022/05/07 02:28:47;;;;;;;11.73;8.90;;;12.20;99.90;;;;;;5097055;28;20471;-74
2022/05/07 02:31:13;;;;;;;9.85;8.80;;;12.10;99.90;;;;;;5097152;28;20028;-75
2022/05/07 02:33:39;;;;;;;13.25;9.48;;;12.10;99.90;;;;;;5096895;28;20020;-74
2022/05/07 02:36:05;;;;;;;14.00;8.95;;;12.10;99.90;;;;;;5096805;28;20024;-73
2022/05/07 02:38:31;;;;;;;16.63;8.93;;;12.10;99.90;;;;;;5096694;28;20059;-74
2022/05/07 02:43:41;;;;;;;11.88;8.95;;;12.10;99.90;;;;;;5098455;28;20138;-74
2022/05/07 02:46:06;;;;;;;11.38;9.02;;;12.10;99.90;;;;;;5047687;28;1443581;-74
2022/05/07 02:48:36;;;;;;;11.73;8.23;;;12.10;99.90;;;;;;5090471;28;20040;-75
2022/05/07 02:51:03;;;;;;;15.70;10.25;;;12.10;99.90;;;;;;5097197;28;20491;-75
2022/05/07 02:53:29;;;;;;;16.98;10.40;;;12.00;99.90;;;;;;5097440;28;20123;-74
2022/05/07 02:55:55;;;;;;;12.82;8.02;;;12.00;99.90;;;;;;5098766;28;20024;-74
2022/05/07 02:58:21;;;;;;;21.15;9.93;;;12.00;99.90;;;;;;5097502;28;20059;-74
2022/05/07 03:00:49;;;;;;;12.30;10.98;;;12.00;99.90;;;;;;5098620;28;20089;-74
2022/05/07 03:03:15;;;;;;;12.93;10.10;;;12.00;99.90;;;;;;5097572;28;20177;-74
2022/05/07 03:05:41;;;;;;;11.90;9.68;;;11.90;99.90;;;;;;5098590;28;20085;-74
2022/05/07 03:08:07;;;;;;;14.18;10.10;;;11.90;99.90;;;;;;5098539;28;20484;-76
2022/05/07 03:10:33;;;;;;;17.05;11.25;;;11.90;99.90;;;;;;5097114;28;20444;-73
2022/05/07 03:12:59;;;;;;;19.63;11.23;;;11.80;99.90;;;;;;5098783;28;20016;-74
2022/05/07 03:15:25;;;;;;;17.27;10.55;;;11.80;99.90;;;;;;5090366;28;20116;-74
2022/05/07 03:17:50;;;;;;;17.58;10.38;;;11.80;99.90;;;;;;5090866;28;20465;-74
2022/05/07 03:20:17;;;;;;;14.50;10.23;;;11.80;99.90;;;;;;5097039;28;20073;-75
2022/05/07 03:22:45;;;;;;;13.88;9.80;;;11.70;99.90;;;;;;5098252;28;20027;-73
2022/05/07 03:25:12;;;;;;;16.48;9.52;;;11.80;99.90;;;;;;5098240;28;20024;-75
2022/05/07 03:27:38;;;;;;;12.73;9.80;;;11.70;99.90;;;;;;5097244;28;20032;-75
2022/05/07 03:30:06;;;;;;;14.60;11.15;;;11.70;99.90;;;;;;5098201;28;20027;-74
2022/05/07 03:32:33;;;;;;;12.15;10.20;;;11.70;99.90;;;;;;5098214;28;20077;-75
2022/05/07 03:34:59;;;;;;;15.30;11.48;;;11.60;99.90;;;;;;5098228;28;20020;-74
2022/05/07 03:37:26;;;;;;;15.27;10.55;;;11.60;99.90;;;;;;5097767;28;20020;-74
2022/05/07 03:39:52;;;;;;;14.98;10.90;;;11.60;99.90;;;;;;5098178;28;20142;-75
2022/05/07 03:42:20;;;;;;;11.00;9.85;;;11.50;99.90;;;;;;5098060;28;20022;-74
2022/05/07 03:44:48;;;;;;;16.80;12.10;;;11.50;99.90;;;;;;5097969;28;20393;-74
2022/05/07 03:47:14;;;;;;;18.73;11.13;;;11.50;99.90;;;;;;5096542;28;20036;-74
2022/05/07 03:49:40;;;;;;;20.42;12.13;;;11.50;99.90;;;;;;5098129;28;20095;-74
2022/05/07 03:54:51;;;;;;;16.60;11.75;;;11.50;99.90;;;;;;5097998;28;20031;-74
2022/05/07 03:57:16;;;;;;;19.30;13.07;;;11.50;99.90;;;;;;5097748;28;20420;-73
2022/05/07 03:59:43;;;;;;;13.40;11.23;;;11.40;99.90;;;;;;5097695;28;20023;-74
2022/05/07 04:02:09;;;;;;;18.02;11.32;;;11.40;99.90;;;;;;5096264;28;20020;-74
2022/05/07 04:04:35;;;;;;;17.15;11.32;;;11.40;99.90;;;;;;5096642;28;20023;-75
2022/05/07 04:07:02;;;;;;;16.17;10.15;;;11.40;99.90;;;;;;5097315;28;20028;-75
2022/05/07 04:09:28;;;;;;;15.38;10.88;;;11.40;99.90;;;;;;5097750;28;20489;-74
2022/05/07 04:11:54;;;;;;;20.40;13.15;;;11.30;99.90;;;;;;5096115;28;20094;-75
2022/05/07 04:14:20;;;;;;;16.38;12.70;;;11.30;99.90;;;;;;5097409;28;20024;-74
2022/05/07 04:16:46;;;;;;;18.23;13.05;;;11.20;99.90;;;;;;5083664;28;20099;-75
2022/05/07 04:19:12;;;;;;;20.13;13.93;;;11.30;99.90;;;;;;5097697;28;20016;-74
2022/05/07 04:21:39;;;;;;;20.00;14.35;;;11.20;99.90;;;;;;5097082;28;20024;-74
2022/05/07 04:24:07;;;;;;;18.42;13.45;;;11.20;99.90;;;;;;5097408;28;20020;-74
2022/05/07 04:26:33;;;;;;;21.77;14.10;;;11.20;99.90;;;;;;5097216;28;20023;-74
2022/05/07 04:28:59;;;;;;;19.15;13.18;;;11.20;99.90;;;;;;5096331;28;20074;-74
2022/05/07 04:31:25;;;;;;;22.05;13.73;;;11.20;99.90;;;;;;5097179;28;20031;-73
2022/05/07 04:33:51;;;;;;;18.20;13.43;;;11.20;99.90;;;;;;5096286;28;20028;-74
2022/05/07 04:36:17;;;;;;;24.40;14.32;;;11.20;99.90;;;;;;5095792;28;20024;-74
2022/05/07 04:38:43;;;;;;;17.50;13.68;;;11.20;99.90;;;;;;5097167;28;20078;-74
2022/05/07 04:41:09;;;;;;;21.33;14.68;;;11.30;99.90;;;;;;5097243;28;20016;-74
2022/05/07 04:43:35;;;;;;;18.77;13.90;;;11.30;99.90;;;;;;5095889;28;20031;-75
2022/05/07 04:46:00;;;;;;;19.55;14.70;;;11.30;99.90;;;;;;5096845;28;20451;-76
2022/05/07 04:48:26;;;;;;;17.42;14.00;;;11.30;99.90;;;;;;5097058;28;20025;-74
2022/05/07 04:50:52;;;;;;;20.75;15.48;;;11.30;99.90;;;;;;5096068;28;20027;-74
2022/05/07 04:53:18;;;;;;;22.73;15.90;;;11.30;99.90;;;;;;5097112;28;20115;-74
2022/05/07 04:55:44;;;;;;;21.75;13.68;;;11.30;99.90;;;;;;5096878;28;20080;-76
2022/05/07 04:58:10;;;;;;;20.40;15.45;;;11.40;99.90;;;;;;5097071;28;20028;-75
2022/05/07 05:00:36;;;;;;;20.75;14.20;;;11.40;99.90;;;;;;5096788;28;20044;-75
2022/05/07 05:03:01;;;;;;;24.17;14.77;;;11.40;99.90;;;;;;5095754;28;20115;-75
2022/05/07 05:05:29;;;;;;;20.17;15.93;;;11.50;99.90;;;;;;5096935;28;20063;-74
2022/05/07 05:07:55;;;;;;;22.70;13.27;;;11.50;99.90;;;;;;5095433;28;20032;-75
2022/05/07 05:10:22;;;;;;;24.90;16.67;;;11.50;99.90;;;;;;5095543;28;20083;-75
2022/05/07 05:12:48;;;;;;;23.63;15.35;;;11.50;99.90;;;;;;5097143;28;20404;-75
2022/05/07 05:15:14;;;;;;;23.00;14.65;;;11.60;99.90;;;;;;5091019;28;20020;-75
2022/05/07 05:17:40;;;;;;;19.50;15.43;;;11.60;99.90;;;;;;5081574;28;20071;-75
2022/05/07 05:20:06;;;;;;;22.48;15.63;;;11.60;99.90;;;;;;5094127;28;20020;-75
2022/05/07 05:22:32;;;;;;;20.25;15.18;;;11.60;99.90;;;;;;5096693;28;20059;-74
2022/05/07 05:24:58;;;;;;;20.08;15.55;;;11.70;99.90;;;;;;5096703;28;20024;-76
2022/05/07 05:27:25;;;;;;;26.40;16.42;;;11.70;99.90;;;;;;5096893;28;20032;-74
2022/05/07 05:29:50;;;;;;;20.08;12.43;;;11.70;99.90;;;;;;5096537;28;20087;-73
2022/05/07 05:32:19;;;;;;;24.77;15.30;;;11.80;99.90;;;;;;5096909;28;20028;-74
2022/05/07 05:34:47;;;;;;;15.48;13.27;;;11.80;99.90;;;;;;5095184;28;20061;-75
2022/05/07 05:37:14;;;;;;;23.88;15.13;;;11.90;99.90;;;;;;5096512;28;20471;-75
2022/05/07 05:39:40;;;;;;;19.20;14.25;;;12.00;99.90;;;;;;5099816;28;20025;-75
2022/05/07 05:42:06;;;;;;;23.83;14.77;;;12.00;99.90;;;;;;5099321;28;20539;-75
2022/05/07 05:44:36;;;;;;;25.92;13.93;;;12.00;99.90;;;;;;5098587;28;20027;-73
2022/05/07 05:47:02;;;;;;;17.90;14.07;;;12.10;99.90;;;;;;5098993;28;20036;-74
2022/05/07 05:49:28;;;;;;;19.33;14.05;;;12.10;99.90;;;;;;5100098;28;20034;-75
2022/05/07 05:51:54;;;;;;;19.00;15.30;;;12.20;99.90;;;;;;5099995;28;20051;-74
2022/05/07 05:54:20;;;;;;;24.27;15.13;;;12.20;99.90;;;;;;5099907;28;20069;-75
2022/05/07 05:56:45;;;;;;;21.15;14.02;;;12.30;99.90;;;;;;5098712;28;20028;-75
2022/05/07 05:59:11;;;;;;;17.73;12.18;;;12.30;99.90;;;;;;5098565;28;20519;-74
2022/05/07 06:01:37;;;;;;;18.17;14.18;;;12.40;99.90;;;;;;5098909;28;20024;-76
2022/05/07 06:04:03;;;;;;;24.55;14.73;;;12.40;99.90;;;;;;5098629;28;20047;-75
2022/05/07 06:06:29;;;;;;;17.17;14.05;;;12.40;99.90;;;;;;5099814;28;20053;-74
2022/05/07 06:08:55;;;;;;;21.60;15.85;;;12.40;99.90;;;;;;5070808;28;20028;-75
2022/05/07 06:11:21;;;;;;;15.73;13.32;;;12.50;99.90;;;;;;5084956;28;20031;-75
2022/05/07 06:13:47;;;;;;;21.55;12.23;;;12.60;99.90;;;;;;5092025;28;20489;-75
2022/05/07 06:16:14;;;;;;;16.20;11.77;;;12.70;99.90;;;;;;5078119;28;20503;-75
2022/05/07 06:18:40;;;;;;;19.48;14.90;;;12.70;99.90;;;;;;5098516;28;20024;-75
2022/05/07 06:21:05;;;;;;;17.00;14.05;;;12.90;99.90;;;;;;5099619;28;20024;-74
2022/05/07 06:23:32;;;;;;;20.55;13.00;;;13.00;99.90;;;;;;5097826;28;20043;-75
2022/05/07 06:28:42;;;;;;;19.92;12.90;;;13.00;99.90;;;;;;5075499;28;20113;-75
2022/05/07 06:31:11;;;;;;;20.92;14.10;;;13.00;99.90;;;;;;5099161;28;20020;-75
2022/05/07 06:33:41;;;;;;;20.70;15.30;;;13.00;99.90;;;;;;5098059;28;20016;-74
2022/05/07 06:36:07;;;;;;;18.98;14.93;;;13.10;99.90;;;;;;5097813;28;20030;-74
2022/05/07 06:38:34;;;;;;;18.42;14.68;;;13.10;99.90;;;;;;5087528;28;20074;-74
2022/05/07 06:41:02;;;;;;;22.60;14.95;;;13.10;99.90;;;;;;5092399;28;20507;-74
2022/05/07 06:43:33;;;;;;;18.35;13.38;;;13.20;99.90;;;;;;5098193;28;20016;-75
2022/05/07 06:45:59;;;;;;;20.40;13.80;;;13.30;99.90;;;;;;5098856;28;20045;-75
2022/05/07 06:48:26;;;;;;;19.98;12.88;;;13.40;99.90;;;;;;5099027;28;20113;-74
2022/05/07 06:50:53;;;;;;;21.08;13.95;;;13.40;99.90;;;;;;5096475;28;20031;-75
2022/05/07 06:53:19;;;;;;;18.98;14.00;;;13.50;99.90;;;;;;5098918;28;20019;-75
2022/05/07 06:56:00;;;;;;;19.52;13.45;;;13.70;99.90;;;;;;5097418;28;20024;-75
2022/05/07 06:58:34;;;;;;;17.65;11.73;;;13.80;99.90;;;;;;5097501;28;20064;-75
2022/05/07 07:01:04;;;;;;;19.65;14.05;;;13.80;99.90;;;;;;5097377;28;20042;-76
2022/05/07 07:03:30;;;;;;;19.40;14.20;;;13.90;99.90;;;;;;5082530;28;20025;-75
2022/05/07 07:05:57;;;;;;;17.85;13.48;;;13.90;99.90;;;;;;5087445;28;20035;-75
2022/05/07 07:08:24;;;;;;;19.77;13.77;;;14.00;99.90;;;;;;5098420;28;20384;-75
2022/05/07 07:10:50;;;;;;;15.50;12.65;;;14.10;99.90;;;;;;5097621;28;20034;-75
2022/05/07 07:13:16;;;;;;;16.85;12.77;;;14.10;99.90;;;;;;5098622;28;20103;-75
2022/05/07 07:15:43;;;;;;;13.60;11.63;;;14.20;99.90;;;;;;5088940;28;20035;-76
2022/05/07 07:18:12;;;;;;;17.75;11.45;;;14.30;99.90;;;;;;5093007;28;20102;-77
2022/05/07 07:20:40;;;;;;;15.35;12.43;;;14.30;99.90;;;;;;5098803;28;20031;-76
2022/05/07 07:23:11;;;;;;;19.95;13.40;;;14.40;99.90;;;;;;5083581;28;20020;-77
2022/05/07 07:25:41;;;;;;;18.55;12.63;;;14.50;99.90;;;;;;5098509;28;20027;-76
2022/05/07 07:28:08;;;;;;;18.75;13.02;;;14.60;99.90;;;;;;5098280;28;20097;-77
2022/05/07 07:30:33;;;;;;;14.80;12.00;;;14.70;99.90;;;;;;5078732;28;20032;-76
2022/05/07 07:33:00;;;;;;;21.83;13.98;;;14.80;99.90;;;;;;5078171;28;20028;-78
2022/05/07 07:35:27;;;;;;;19.15;12.95;;;14.90;99.90;;;;;;5077749;28;20032;-78
2022/05/07 07:37:53;;;;;;;21.13;12.75;;;15.10;99.90;;;;;;5095180;28;20099;-76
2022/05/07 07:40:19;;;;;;;20.50;12.93;;;15.20;99.90;;;;;;5096846;28;20024;-78
2022/05/07 07:42:45;;;;;;;15.60;11.75;;;15.20;99.90;;;;;;5098041;28;20016;-78
2022/05/07 07:47:57;;;;;;;19.27;12.48;;;15.20;99.90;;;;;;5094335;28;20035;-76
2022/05/07 07:50:24;;;;;;;15.13;12.02;;;15.30;99.90;;;;;;5083951;28;20028;-77
2022/05/07 07:52:54;;;;;;;19.48;11.90;;;15.30;99.90;;;;;;5097679;28;20031;-76
2022/05/07 07:55:20;;;;;;;16.58;11.32;;;15.30;99.90;;;;;;5096926;28;20079;-77
2022/05/07 07:57:46;;;;;;;21.45;11.40;;;15.40;99.90;;;;;;5096979;28;20116;-76
2022/05/07 08:00:13;;;;;;;15.43;11.60;;;15.40;99.90;;;;;;5096924;28;20020;-77
2022/05/07 08:02:55;;;;;;;17.10;9.52;;;15.60;99.90;;;;;;5095953;28;20019;-77
2022/05/07 08:05:32;;;;;;;13.50;10.30;;;15.70;99.90;;;;;;5095440;28;20032;-76
2022/05/07 08:13:34;;;;;;;15.65;10.68;;;16.00;99.90;;;;;;5086073;28;20129;-75
2022/05/07 08:16:01;;;;;;;13.10;9.18;;;16.20;99.90;;;;;;5082190;28;20029;-77
2022/05/07 08:18:27;;;;;;;12.70;10.40;;;16.20;99.90;;;;;;5093245;28;20099;-75
2022/05/07 08:20:53;;;;;;;16.08;10.50;;;16.10;99.90;;;;;;5097502;28;20020;-76
2022/05/07 08:23:19;;;;;;;22.05;10.95;;;16.10;99.90;;;;;;5097011;28;20362;-77
2022/05/07 08:25:45;;;;;;;15.25;10.85;;;16.10;99.90;;;;;;5097371;28;20054;-76
2022/05/07 08:28:11;;;;;;;15.00;10.18;;;16.00;99.90;;;;;;5096976;28;20508;-76
2022/05/07 08:30:37;;;;;;;18.98;10.20;;;16.00;99.90;;;;;;5097267;28;20366;-78
2022/05/07 08:33:06;;;;;;;19.98;10.43;;;16.10;99.90;;;;;;5097217;28;20077;-76
2022/05/07 08:35:32;;;;;;;16.13;10.38;;;16.10;99.90;;;;;;5089405;28;20024;-78
2022/05/07 08:37:58;;;;;;;10.50;8.65;;;16.20;99.90;;;;;;5094623;28;20064;-79
2022/05/07 08:40:24;;;;;;;17.17;9.25;;;16.40;99.90;;;;;;5097274;28;20024;-75
2022/05/07 08:42:50;;;;;;;13.65;9.48;;;16.50;99.90;;;;;;5097232;28;20048;-76
2022/05/07 08:45:16;;;;;;;14.88;10.40;;;16.60;99.90;;;;;;5095651;28;20055;-77
2022/05/07 08:47:43;;;;;;;14.52;10.55;;;16.60;99.90;;;;;;5096930;28;20403;-76
2022/05/07 08:50:13;;;;;;;16.48;10.23;;;16.60;99.90;;;;;;5096283;28;20035;-76
2022/05/07 08:52:42;;;;;;;18.05;9.77;;;16.60;99.90;;;;;;5085954;28;20070;-76
2022/05/07 08:55:13;;;;;;;10.00;7.20;;;16.50;99.90;;;;;;5075020;28;20028;-76
2022/05/07 08:57:40;;;;;;;13.50;9.93;;;16.40;99.90;;;;;;5078602;28;20013;-76
2022/05/07 09:00:07;;;;;;;12.27;9.07;;;16.40;99.90;;;;;;5078043;28;20090;-76
2022/05/07 09:02:50;;;;;;;14.82;10.15;;;16.40;99.90;;;;;;5074812;28;20016;-76
2022/05/07 09:05:19;;;;;;;14.15;10.88;;;16.40;99.90;;;;;;5075626;28;20021;-75
2022/05/07 09:07:57;;;;;;;12.88;9.43;;;16.40;99.90;;;;;;5075623;28;20027;-75
2022/05/07 09:10:28;;;;;;;12.57;9.60;;;16.40;99.90;;;;;;5077717;28;20035;-78
2022/05/07 09:13:14;;;;;;;12.88;8.27;;;16.50;99.90;;;;;;5083797;28;20017;-78
2022/05/07 09:15:57;;;;;;;13.23;9.23;;;16.50;99.90;;;;;;5080396;28;20078;-79
2022/05/07 09:18:25;;;;;;;15.68;10.65;;;16.60;99.90;;;;;;5097236;28;20020;-79
2022/05/07 09:21:23;;;;;;;12.18;7.45;;;16.70;99.90;;;;;;5100948;28;20027;-80
2022/05/07 09:23:58;;;;;;;16.10;9.45;;;16.70;99.90;;;;;;5099542;28;20026;-79
2022/05/07 09:26:40;;;;;;;19.92;9.55;;;16.80;99.90;;;;;;5100602;28;20028;-78
2022/05/07 09:29:10;;;;;;;14.27;8.43;;;16.90;99.90;;;;;;5100612;28;20084;-79
2022/05/07 09:31:41;;;;;;;14.57;9.05;;;17.00;99.90;;;;;;5100601;28;20373;-76
2022/05/07 09:37:18;;;;;;;13.75;7.72;;;17.20;99.90;;;;;;5090307;28;20503;-78
2022/05/07 09:39:49;;;;;;;12.90;8.60;;;17.10;99.90;;;;;;5098840;28;20023;-77
2022/05/07 09:42:22;;;;;;;12.07;8.48;;;17.20;99.90;;;;;;5081663;28;20579;-77
2022/05/07 09:44:48;;;;;;;13.80;9.07;;;17.40;99.90;;;;;;5097360;28;20048;-79
2022/05/07 09:47:15;;;;;;;10.77;8.98;;;17.50;99.90;;;;;;5073419;28;20047;-77
2022/05/07 09:52:32;;;;;;;;;;;17.70;99.90;;;;;;5066571;28;20516;-77
2022/05/07 09:57:42;;;;;;;12.65;8.82;;;17.80;99.90;;;;;;5082338;28;20077;-76
2022/05/07 10:00:13;;;;;;;15.38;8.90;;;17.80;99.90;;;;;;5092899;28;20032;-76
2022/05/07 10:03:26;;;;;;;12.98;8.75;;;17.80;99.90;;;;;;5098799;28;20020;-77
2022/05/07 10:06:03;;;;;;;14.52;8.77;;;18.00;99.90;;;;;;5054214;28;20522;-76
2022/05/07 10:08:52;;;;;;;10.95;7.90;;;17.90;99.90;;;;;;5099683;28;20037;-77
2022/05/07 10:11:18;;;;;;;11.13;7.60;;;17.90;99.90;;;;;;5099836;28;20020;-77
2022/05/07 10:14:03;;;;;;;12.27;7.63;;;18.00;99.90;;;;;;5099562;28;20024;-77
2022/05/07 10:16:30;;;;;;;15.82;8.15;;;18.10;99.90;;;;;;5086011;28;20106;-79
2022/05/07 10:18:56;;;;;;;12.10;7.70;;;18.30;99.90;;;;;;5099400;28;20023;-77
2022/05/07 10:21:22;;;;;;;13.32;8.25;;;18.50;99.90;;;;;;5099185;28;20089;-79
2022/05/07 10:23:56;;;;;;;12.52;7.28;;;18.60;99.90;;;;;;5099341;28;20016;-77
2022/05/07 10:26:41;;;;;;;9.88;7.75;;;18.70;99.90;;;;;;5099595;28;20034;-77
2022/05/07 10:29:20;;;;;;;11.48;7.55;;;18.70;99.90;;;;;;5098113;28;20111;-78
2022/05/07 10:31:46;;;;;;;16.33;7.93;;;18.70;99.90;;;;;;5098266;28;20028;-77
2022/05/07 10:34:26;;;;;;;15.98;9.20;;;18.70;99.90;;;;;;5098096;28;20073;-78
2022/05/07 10:37:06;;;;;;;12.20;7.50;;;18.80;99.90;;;;;;5099292;28;20035;-77
2022/05/07 10:39:32;;;;;;;8.40;6.83;;;18.90;99.90;;;;;;5092119;28;20020;-78
2022/05/07 10:42:02;;;;;;;15.38;8.43;;;19.00;99.90;;;;;;5097997;28;20024;-77
2022/05/07 10:44:34;;;;;;;14.70;8.10;;;18.90;99.90;;;;;;5097639;28;20399;-78
2022/05/07 10:47:11;;;;;;;15.65;8.20;;;18.90;99.90;;;;;;5097972;28;20085;-76
2022/05/07 10:50:06;;;;;;;11.85;7.68;;;19.00;99.90;;;;;;5097985;28;20396;-78
2022/05/07 10:52:33;;;;;;;10.10;7.07;;;19.00;99.90;;;;;;5094006;28;20040;-77
2022/05/07 10:55:10;;;;;;;10.40;7.85;;;19.20;99.90;;;;;;5099176;28;20031;-77
2022/05/07 10:57:49;;;;;;;13.40;7.47;;;19.30;99.90;;;;;;5098869;28;20020;-78
2022/05/07 11:00:21;;;;;;;12.52;8.23;;;19.40;99.90;;;;;;5097495;28;20035;-77
2022/05/07 11:02:49;;;;;;;14.70;7.30;;;19.60;99.90;;;;;;5099075;28;20028;-78
2022/05/07 11:05:16;;;;;;;17.48;7.47;;;19.60;99.90;;;;;;5097415;28;20022;-77
2022/05/07 11:07:43;;;;;;;12.93;7.28;;;19.50;99.90;;;;;;5098559;28;20472;-78
2022/05/07 11:10:12;;;;;;;10.32;6.75;;;19.60;99.90;;;;;;5098596;28;20438;-76
2022/05/07 11:12:42;;;;;;;14.88;7.75;;;19.60;99.90;;;;;;5098684;28;20472;-79
2022/05/07 11:15:08;;;;;;;15.25;7.68;;;19.60;99.90;;;;;;5093688;28;20035;-78
2022/05/07 11:17:36;;;;;;;13.10;7.85;;;19.80;99.90;;;;;;5087119;28;20472;-77
2022/05/07 11:20:04;;;;;;;14.25;6.97;;;19.90;99.90;;;;;;5098377;28;20024;-78
2022/05/07 11:22:30;;;;;;;10.40;7.07;;;20.00;99.90;;;;;;5098422;28;20012;-76
2022/05/07 11:25:00;;;;;;;11.77;8.15;;;20.00;99.90;;;;;;5098474;28;20483;-76
2022/05/07 11:27:32;;;;;;;16.10;7.95;;;19.80;99.90;;;;;;5097271;28;20039;-75
2022/05/07 11:30:00;;;;;;;10.75;6.13;;;20.10;99.90;;;;;;5096855;28;20535;-76
2022/05/07 11:32:42;;;;;;;9.13;6.80;;;20.10;99.90;;;;;;5098426;28;20434;-77
2022/05/07 11:35:09;;;;;;;12.10;7.05;;;20.20;99.90;;;;;;5088120;28;20036;-77
2022/05/07 11:37:43;;;;;;;15.43;7.22;;;20.40;99.90;;;;;;5091053;28;20393;-77
2022/05/07 11:40:10;;;;;;;7.50;5.78;;;20.50;99.90;;;;;;5096947;28;20024;-76
2022/05/07 11:42:43;;;;;;;9.40;6.90;;;20.70;99.90;;;;;;5098174;28;20051;-77
2022/05/07 11:45:26;;;;;;;8.45;6.20;;;20.50;99.90;;;;;;5097912;28;20055;-77
2022/05/07 11:48:08;;;;;;;11.57;7.05;;;20.40;99.90;;;;;;5096675;28;20523;-76
2022/05/07 11:50:41;;;;;;;8.90;5.90;;;20.50;99.90;;;;;;5096566;28;20024;-75
2022/05/07 11:53:17;;;;;;;10.73;6.45;;;20.50;99.90;;;;;;5097974;28;20037;-76
2022/05/07 11:55:44;;;;;;;11.05;5.60;;;20.70;99.90;;;;;;5096378;28;20047;-76
2022/05/07 11:58:20;;;;;;;9.77;6.55;;;20.90;99.90;;;;;;5097772;28;20024;-77
2022/05/07 12:00:48;;;;;;;10.10;6.07;;;21.00;99.90;;;;;;5096365;28;20024;-76
2022/05/07 12:03:26;;;;;;;9.70;5.68;;;21.00;99.90;;;;;;5097893;28;20017;-75
2022/05/07 12:05:54;;;;;;;13.65;5.88;;;20.90;99.90;;;;;;5097772;28;20028;-76
2022/05/07 12:08:23;;;;;;;11.00;5.95;;;21.20;99.90;;;;;;5097610;28;20085;-76
2022/05/07 12:10:53;;;;;;;10.82;6.30;;;21.40;99.90;;;;;;5098077;28;20032;-76
2022/05/07 12:13:24;;;;;;;10.10;5.72;;;21.40;99.90;;;;;;5097782;28;20092;-76
2022/05/07 12:18:37;;;;;;;7.35;5.15;;;21.50;99.90;;;;;;5095908;28;20059;-76
2022/05/07 12:21:03;;;;;;;12.50;6.80;;;21.60;99.90;;;;;;5097143;28;20020;-76
2022/05/07 12:31:44;;;;;;;10.75;5.88;;;21.40;99.90;;;;;;5097129;28;20073;-76
2022/05/07 12:34:10;;;;;;;11.88;6.22;;;21.40;98.80;;;;;;5097157;28;20016;-76
2022/05/07 12:36:36;;;;;;;10.23;5.38;;;21.30;98.40;;;;;;5095833;28;20028;-77
2022/05/07 12:39:02;;;;;;;10.05;5.72;;;21.30;98.90;;;;;;5097350;28;20018;-77
2022/05/07 12:41:31;;;;;;;9.55;5.55;;;21.30;98.10;;;;;;5097196;28;20020;-76
2022/05/07 12:43:59;;;;;;;8.90;5.13;;;21.20;96.80;;;;;;5096958;28;20388;-77
2022/05/07 12:46:25;;;;;;;6.47;4.82;;;21.10;96.50;;;;;;5097089;28;20119;-77
2022/05/07 12:48:52;;;;;;;8.55;5.47;;;21.20;96.30;;;;;;5099862;28;20024;-76
2022/05/07 12:51:18;;;;;;;8.05;5.18;;;21.30;96.30;;;;;;5099940;28;20047;-76
2022/05/07 12:53:43;;;;;;;8.55;4.88;;;21.60;97.00;;;;;;5087708;28;20028;-76
2022/05/07 12:56:09;;;;;;;7.18;4.85;;;21.70;94.70;;;;;;5100083;28;20024;-76
2022/05/07 12:58:36;;;;;;;11.20;5.03;;;21.90;94.30;;;;;;5099964;28;20024;-76
2022/05/07 13:01:02;;;;;;;7.13;4.47;;;22.00;95.80;;;;;;5099899;28;20028;-76
2022/05/07 13:03:28;;;;;;;12.13;4.53;;;22.10;95.00;;;;;;5100095;28;20073;-76
2022/05/07 13:05:54;;;;;;;8.40;4.97;;;22.10;95.50;;;;;;5100089;28;20032;-77
2022/05/07 13:08:20;;;;;;;8.73;4.40;;;21.70;94.50;;;;;;5101133;28;20024;-76
2022/05/07 13:10:46;;;;;;;9.38;4.45;;;21.60;94.00;;;;;;5099859;28;20446;-75
2022/05/07 13:13:12;;;;;;;7.50;3.88;;;21.50;94.00;;;;;;5100991;28;20058;-75
2022/05/07 13:15:39;;;;;;;7.93;4.53;;;21.80;93.90;;;;;;5093346;28;20024;-76
2022/05/07 13:18:05;;;;;;;5.57;4.03;;;21.90;93.60;;;;;;5095130;28;20016;-75
2022/05/07 13:20:31;;;;;;;5.80;3.40;;;22.00;94.10;;;;;;5100990;28;20020;-75
2022/05/07 13:22:57;;;;;;;6.70;4.63;;;22.20;94.90;;;;;;5100651;28;20016;-76
2022/05/07 13:25:23;;;;;;;10.10;4.35;;;22.60;94.10;;;;;;5099644;28;20028;-75